sensor_id;sensor_type;location;lat;lon;timestamp;P1;durP1;ratioP1;P2;durP2;ratioP2
11572;SDS011;5842;52.426;4.886;2023-03-01T00:01:14;22.67;;;10.73;;
11572;SDS011;5842;52.426;4.886;2023-03-01T00:03:42;21.53;;;10.93;;
11572;SDS011;5842;52.426;4.886;2023-03-01T00:06:11;21.73;;;11.43;;
11572;SDS011;5842;52.426;4.886;2023-03-01T00:08:39;21.13;;;10.77;;
11572;SDS011;5842;52.426;4.886;2023-03-01T00:11:07;20.43;;;11.13;;
11572;SDS011;5842;52.426;4.886;2023-03-01T00:13:36;20.73;;;11.50;;
11572;SDS011;5842;52.426;4.886;2023-03-01T00:16:04;20.63;;;11.10;;
11572;SDS011;5842;52.426;4.886;2023-03-01T00:18:33;19.53;;;10.57;;
11572;SDS011;5842;52.426;4.886;2023-03-01T00:21:00;21.37;;;11.10;;
11572;SDS011;5842;52.426;4.886;2023-03-01T00:23:29;20.07;;;10.87;;
11572;SDS011;5842;52.426;4.886;2023-03-01T00:25:57;23.43;;;11.87;;
11572;SDS011;5842;52.426;4.886;2023-03-01T00:28:24;23.07;;;11.50;;
11572;SDS011;5842;52.426;4.886;2023-03-01T00:30:52;20.00;;;11.13;;
11572;SDS011;5842;52.426;4.886;2023-03-01T00:33:19;22.60;;;11.60;;
11572;SDS011;5842;52.426;4.886;2023-03-01T00:35:47;24.93;;;11.77;;
11572;SDS011;5842;52.426;4.886;2023-03-01T00:38:14;20.17;;;11.20;;
11572;SDS011;5842;52.426;4.886;2023-03-01T00:40:43;22.07;;;11.50;;
11572;SDS011;5842;52.426;4.886;2023-03-01T00:43:10;21.73;;;11.60;;
11572;SDS011;5842;52.426;4.886;2023-03-01T00:45:38;20.93;;;11.63;;
11572;SDS011;5842;52.426;4.886;2023-03-01T00:48:05;19.93;;;10.67;;
11572;SDS011;5842;52.426;4.886;2023-03-01T00:50:32;21.30;;;11.43;;
11572;SDS011;5842;52.426;4.886;2023-03-01T00:53:03;21.23;;;11.33;;
11572;SDS011;5842;52.426;4.886;2023-03-01T00:55:30;22.70;;;11.33;;
11572;SDS011;5842;52.426;4.886;2023-03-01T00:57:59;23.10;;;11.07;;
11572;SDS011;5842;52.426;4.886;2023-03-01T01:00:27;21.70;;;10.63;;
11572;SDS011;5842;52.426;4.886;2023-03-01T01:02:55;21.00;;;10.93;;
11572;SDS011;5842;52.426;4.886;2023-03-01T01:05:22;22.07;;;11.07;;
11572;SDS011;5842;52.426;4.886;2023-03-01T01:07:50;24.50;;;12.00;;
11572;SDS011;5842;52.426;4.886;2023-03-01T01:10:17;22.67;;;11.70;;
11572;SDS011;5842;52.426;4.886;2023-03-01T01:12:45;22.63;;;11.67;;
11572;SDS011;5842;52.426;4.886;2023-03-01T01:15:17;20.10;;;11.07;;
11572;SDS011;5842;52.426;4.886;2023-03-01T01:17:44;23.50;;;12.50;;
11572;SDS011;5842;52.426;4.886;2023-03-01T01:20:12;20.87;;;11.10;;
11572;SDS011;5842;52.426;4.886;2023-03-01T01:22:39;22.90;;;11.17;;
11572;SDS011;5842;52.426;4.886;2023-03-01T01:25:07;22.33;;;11.40;;
11572;SDS011;5842;52.426;4.886;2023-03-01T01:27:34;22.17;;;11.83;;
11572;SDS011;5842;52.426;4.886;2023-03-01T01:30:02;22.70;;;11.20;;
11572;SDS011;5842;52.426;4.886;2023-03-01T01:32:31;23.43;;;11.63;;
11572;SDS011;5842;52.426;4.886;2023-03-01T01:34:58;25.37;;;11.77;;
11572;SDS011;5842;52.426;4.886;2023-03-01T01:37:26;28.07;;;12.77;;
11572;SDS011;5842;52.426;4.886;2023-03-01T01:39:56;22.97;;;11.67;;
11572;SDS011;5842;52.426;4.886;2023-03-01T01:42:24;25.00;;;11.93;;
11572;SDS011;5842;52.426;4.886;2023-03-01T01:47:38;22.30;;;10.87;;
11572;SDS011;5842;52.426;4.886;2023-03-01T01:50:08;25.87;;;11.63;;
11572;SDS011;5842;52.426;4.886;2023-03-01T01:52:41;24.57;;;11.30;;
11572;SDS011;5842;52.426;4.886;2023-03-01T01:55:10;24.57;;;11.77;;
11572;SDS011;5842;52.426;4.886;2023-03-01T01:57:38;22.30;;;12.20;;
11572;SDS011;5842;52.426;4.886;2023-03-01T02:00:07;22.70;;;11.50;;
11572;SDS011;5842;52.426;4.886;2023-03-01T02:02:35;23.27;;;11.80;;
11572;SDS011;5842;52.426;4.886;2023-03-01T02:05:06;25.77;;;12.20;;
11572;SDS011;5842;52.426;4.886;2023-03-01T02:07:36;23.47;;;10.47;;
11572;SDS011;5842;52.426;4.886;2023-03-01T02:10:05;26.33;;;11.63;;
11572;SDS011;5842;52.426;4.886;2023-03-01T02:12:33;24.97;;;11.97;;
11572;SDS011;5842;52.426;4.886;2023-03-01T02:15:01;23.80;;;11.17;;
11572;SDS011;5842;52.426;4.886;2023-03-01T02:17:28;28.33;;;12.50;;
11572;SDS011;5842;52.426;4.886;2023-03-01T02:19:59;24.17;;;11.57;;
11572;SDS011;5842;52.426;4.886;2023-03-01T02:22:36;24.87;;;12.00;;
11572;SDS011;5842;52.426;4.886;2023-03-01T02:25:07;24.17;;;12.23;;
11572;SDS011;5842;52.426;4.886;2023-03-01T02:27:40;28.13;;;13.23;;
11572;SDS011;5842;52.426;4.886;2023-03-01T02:30:11;26.63;;;13.00;;
11572;SDS011;5842;52.426;4.886;2023-03-01T02:32:39;25.10;;;12.53;;
11572;SDS011;5842;52.426;4.886;2023-03-01T02:35:07;29.90;;;13.03;;
11572;SDS011;5842;52.426;4.886;2023-03-01T02:37:35;25.67;;;12.53;;
11572;SDS011;5842;52.426;4.886;2023-03-01T02:40:04;27.97;;;13.13;;
11572;SDS011;5842;52.426;4.886;2023-03-01T02:42:36;28.50;;;11.03;;
11572;SDS011;5842;52.426;4.886;2023-03-01T02:45:10;29.00;;;12.63;;
11572;SDS011;5842;52.426;4.886;2023-03-01T02:47:38;27.57;;;13.47;;
11572;SDS011;5842;52.426;4.886;2023-03-01T02:50:11;31.07;;;13.70;;
11572;SDS011;5842;52.426;4.886;2023-03-01T02:52:41;26.47;;;12.53;;
11572;SDS011;5842;52.426;4.886;2023-03-01T02:55:12;25.77;;;12.47;;
11572;SDS011;5842;52.426;4.886;2023-03-01T02:57:40;25.10;;;12.37;;
11572;SDS011;5842;52.426;4.886;2023-03-01T03:00:09;29.43;;;13.37;;
11572;SDS011;5842;52.426;4.886;2023-03-01T03:02:45;28.90;;;13.07;;
11572;SDS011;5842;52.426;4.886;2023-03-01T03:05:14;27.30;;;13.07;;
11572;SDS011;5842;52.426;4.886;2023-03-01T03:07:43;26.77;;;13.03;;
11572;SDS011;5842;52.426;4.886;2023-03-01T03:10:12;28.67;;;13.50;;
11572;SDS011;5842;52.426;4.886;2023-03-01T03:12:40;26.77;;;12.27;;
11572;SDS011;5842;52.426;4.886;2023-03-01T03:15:08;27.43;;;13.17;;
11572;SDS011;5842;52.426;4.886;2023-03-01T03:17:38;35.27;;;15.40;;
11572;SDS011;5842;52.426;4.886;2023-03-01T03:20:09;31.40;;;14.13;;
11572;SDS011;5842;52.426;4.886;2023-03-01T03:22:38;30.00;;;12.73;;
11572;SDS011;5842;52.426;4.886;2023-03-01T03:25:06;31.40;;;12.83;;
11572;SDS011;5842;52.426;4.886;2023-03-01T03:27:35;31.37;;;14.20;;
11572;SDS011;5842;52.426;4.886;2023-03-01T03:30:04;31.60;;;13.50;;
11572;SDS011;5842;52.426;4.886;2023-03-01T03:32:34;24.73;;;12.40;;
11572;SDS011;5842;52.426;4.886;2023-03-01T03:35:03;26.47;;;12.33;;
11572;SDS011;5842;52.426;4.886;2023-03-01T03:37:36;29.43;;;12.20;;
11572;SDS011;5842;52.426;4.886;2023-03-01T03:40:21;27.43;;;12.20;;
11572;SDS011;5842;52.426;4.886;2023-03-01T03:42:49;23.77;;;11.37;;
11572;SDS011;5842;52.426;4.886;2023-03-01T03:45:17;22.97;;;10.23;;
11572;SDS011;5842;52.426;4.886;2023-03-01T03:47:44;22.67;;;10.80;;
11572;SDS011;5842;52.426;4.886;2023-03-01T03:50:13;23.10;;;11.03;;
11572;SDS011;5842;52.426;4.886;2023-03-01T03:52:42;23.47;;;11.50;;
11572;SDS011;5842;52.426;4.886;2023-03-01T03:55:10;22.67;;;11.23;;
11572;SDS011;5842;52.426;4.886;2023-03-01T03:57:37;23.30;;;11.10;;
11572;SDS011;5842;52.426;4.886;2023-03-01T04:00:05;20.27;;;10.43;;
11572;SDS011;5842;52.426;4.886;2023-03-01T04:02:40;21.40;;;11.10;;
11572;SDS011;5842;52.426;4.886;2023-03-01T04:05:09;21.03;;;10.30;;
11572;SDS011;5842;52.426;4.886;2023-03-01T04:07:37;22.43;;;11.00;;
11572;SDS011;5842;52.426;4.886;2023-03-01T04:10:07;21.57;;;10.53;;
11572;SDS011;5842;52.426;4.886;2023-03-01T04:12:35;22.67;;;10.80;;
11572;SDS011;5842;52.426;4.886;2023-03-01T04:15:03;22.27;;;10.83;;
11572;SDS011;5842;52.426;4.886;2023-03-01T04:17:37;22.97;;;10.30;;
11572;SDS011;5842;52.426;4.886;2023-03-01T04:20:05;22.13;;;11.03;;
11572;SDS011;5842;52.426;4.886;2023-03-01T04:22:33;18.17;;;10.27;;
11572;SDS011;5842;52.426;4.886;2023-03-01T04:25:00;23.70;;;11.03;;
11572;SDS011;5842;52.426;4.886;2023-03-01T04:27:32;23.53;;;10.90;;
11572;SDS011;5842;52.426;4.886;2023-03-01T04:30:00;19.83;;;9.80;;
11572;SDS011;5842;52.426;4.886;2023-03-01T04:32:27;22.83;;;11.27;;
11572;SDS011;5842;52.426;4.886;2023-03-01T04:34:55;21.13;;;10.00;;
11572;SDS011;5842;52.426;4.886;2023-03-01T04:37:22;21.77;;;10.23;;
11572;SDS011;5842;52.426;4.886;2023-03-01T04:39:50;23.60;;;10.97;;
11572;SDS011;5842;52.426;4.886;2023-03-01T04:42:17;22.33;;;11.10;;
11572;SDS011;5842;52.426;4.886;2023-03-01T04:44:46;20.43;;;11.07;;
11572;SDS011;5842;52.426;4.886;2023-03-01T04:47:16;24.27;;;11.77;;
11572;SDS011;5842;52.426;4.886;2023-03-01T04:49:43;24.83;;;12.20;;
11572;SDS011;5842;52.426;4.886;2023-03-01T04:52:11;21.17;;;11.50;;
11572;SDS011;5842;52.426;4.886;2023-03-01T04:54:38;27.03;;;11.27;;
11572;SDS011;5842;52.426;4.886;2023-03-01T04:57:06;29.03;;;12.60;;
11572;SDS011;5842;52.426;4.886;2023-03-01T04:59:33;24.10;;;12.37;;
11572;SDS011;5842;52.426;4.886;2023-03-01T05:02:02;26.37;;;12.97;;
11572;SDS011;5842;52.426;4.886;2023-03-01T05:04:30;26.90;;;12.80;;
11572;SDS011;5842;52.426;4.886;2023-03-01T05:06:57;26.70;;;13.23;;
11572;SDS011;5842;52.426;4.886;2023-03-01T05:09:25;26.80;;;12.13;;
11572;SDS011;5842;52.426;4.886;2023-03-01T05:11:52;25.23;;;12.20;;
11572;SDS011;5842;52.426;4.886;2023-03-01T05:14:19;23.80;;;12.03;;
11572;SDS011;5842;52.426;4.886;2023-03-01T05:16:48;31.77;;;11.83;;
11572;SDS011;5842;52.426;4.886;2023-03-01T05:19:16;27.93;;;12.40;;
11572;SDS011;5842;52.426;4.886;2023-03-01T05:21:47;24.47;;;12.03;;
11572;SDS011;5842;52.426;4.886;2023-03-01T05:24:34;24.73;;;12.27;;
11572;SDS011;5842;52.426;4.886;2023-03-01T05:27:02;54.63;;;13.07;;
11572;SDS011;5842;52.426;4.886;2023-03-01T05:29:30;43.30;;;13.27;;
11572;SDS011;5842;52.426;4.886;2023-03-01T05:32:00;30.03;;;13.50;;
11572;SDS011;5842;52.426;4.886;2023-03-01T05:34:31;34.23;;;13.10;;
11572;SDS011;5842;52.426;4.886;2023-03-01T05:36:59;50.70;;;14.80;;
11572;SDS011;5842;52.426;4.886;2023-03-01T05:39:27;26.17;;;13.60;;
11572;SDS011;5842;52.426;4.886;2023-03-01T05:41:55;37.27;;;13.23;;
11572;SDS011;5842;52.426;4.886;2023-03-01T05:44:23;26.47;;;12.37;;
11572;SDS011;5842;52.426;4.886;2023-03-01T05:46:51;32.10;;;13.67;;
11572;SDS011;5842;52.426;4.886;2023-03-01T05:49:18;25.47;;;12.77;;
11572;SDS011;5842;52.426;4.886;2023-03-01T05:51:50;26.17;;;12.93;;
11572;SDS011;5842;52.426;4.886;2023-03-01T05:54:18;27.77;;;13.43;;
11572;SDS011;5842;52.426;4.886;2023-03-01T05:56:46;28.00;;;14.33;;
11572;SDS011;5842;52.426;4.886;2023-03-01T05:59:14;25.50;;;13.07;;
11572;SDS011;5842;52.426;4.886;2023-03-01T06:01:41;25.80;;;12.17;;
11572;SDS011;5842;52.426;4.886;2023-03-01T06:04:09;25.73;;;13.10;;
11572;SDS011;5842;52.426;4.886;2023-03-01T06:06:36;26.27;;;13.13;;
11572;SDS011;5842;52.426;4.886;2023-03-01T06:09:06;27.63;;;13.17;;
11572;SDS011;5842;52.426;4.886;2023-03-01T06:11:35;56.87;;;13.50;;
11572;SDS011;5842;52.426;4.886;2023-03-01T06:14:02;45.20;;;14.23;;
11572;SDS011;5842;52.426;4.886;2023-03-01T06:16:31;27.10;;;12.93;;
11572;SDS011;5842;52.426;4.886;2023-03-01T06:18:58;25.03;;;12.73;;
11572;SDS011;5842;52.426;4.886;2023-03-01T06:21:26;59.03;;;13.87;;
11572;SDS011;5842;52.426;4.886;2023-03-01T06:23:53;26.87;;;14.10;;
11572;SDS011;5842;52.426;4.886;2023-03-01T06:26:22;40.87;;;15.40;;
11572;SDS011;5842;52.426;4.886;2023-03-01T06:28:49;27.07;;;13.67;;
11572;SDS011;5842;52.426;4.886;2023-03-01T06:31:17;39.30;;;14.40;;
11572;SDS011;5842;52.426;4.886;2023-03-01T06:33:44;30.30;;;15.23;;
11572;SDS011;5842;52.426;4.886;2023-03-01T06:36:12;30.43;;;14.03;;
11572;SDS011;5842;52.426;4.886;2023-03-01T06:38:39;30.13;;;13.87;;
11572;SDS011;5842;52.426;4.886;2023-03-01T06:41:08;28.10;;;13.67;;
11572;SDS011;5842;52.426;4.886;2023-03-01T06:43:37;29.37;;;14.10;;
11572;SDS011;5842;52.426;4.886;2023-03-01T06:46:04;27.53;;;14.10;;
11572;SDS011;5842;52.426;4.886;2023-03-01T06:48:32;35.90;;;14.47;;
11572;SDS011;5842;52.426;4.886;2023-03-01T06:51:00;41.87;;;15.03;;
11572;SDS011;5842;52.426;4.886;2023-03-01T06:53:28;23.47;;;13.33;;
11572;SDS011;5842;52.426;4.886;2023-03-01T06:55:55;38.00;;;15.90;;
11572;SDS011;5842;52.426;4.886;2023-03-01T06:58:24;31.50;;;15.50;;
11572;SDS011;5842;52.426;4.886;2023-03-01T07:00:53;28.70;;;15.53;;
11572;SDS011;5842;52.426;4.886;2023-03-01T07:03:20;35.87;;;16.63;;
11572;SDS011;5842;52.426;4.886;2023-03-01T07:05:48;91.03;;;18.13;;
11572;SDS011;5842;52.426;4.886;2023-03-01T07:08:17;90.80;;;18.13;;
11572;SDS011;5842;52.426;4.886;2023-03-01T07:10:44;28.77;;;15.73;;
11572;SDS011;5842;52.426;4.886;2023-03-01T07:13:12;121.40;;;19.97;;
11572;SDS011;5842;52.426;4.886;2023-03-01T07:15:39;139.87;;;18.83;;
11572;SDS011;5842;52.426;4.886;2023-03-01T07:18:11;31.10;;;17.27;;
11572;SDS011;5842;52.426;4.886;2023-03-01T07:38:38;43.63;;;24.67;;
11572;SDS011;5842;52.426;4.886;2023-03-01T07:41:05;36.22;;;24.38;;
11572;SDS011;5842;52.426;4.886;2023-03-01T07:43:32;36.70;;;19.53;;
11572;SDS011;5842;52.426;4.886;2023-03-01T07:46:00;54.83;;;22.95;;
11572;SDS011;5842;52.426;4.886;2023-03-01T07:48:31;30.67;;;17.50;;
11572;SDS011;5842;52.426;4.886;2023-03-01T07:50:59;60.97;;;18.00;;
11572;SDS011;5842;52.426;4.886;2023-03-01T07:53:26;68.50;;;17.83;;
11572;SDS011;5842;52.426;4.886;2023-03-01T07:56:01;45.77;;;17.13;;
11572;SDS011;5842;52.426;4.886;2023-03-01T07:58:28;39.73;;;16.53;;
11572;SDS011;5842;52.426;4.886;2023-03-01T08:00:56;25.03;;;15.63;;
11572;SDS011;5842;52.426;4.886;2023-03-01T08:03:23;62.83;;;17.70;;
11572;SDS011;5842;52.426;4.886;2023-03-01T08:05:51;24.57;;;15.40;;
11572;SDS011;5842;52.426;4.886;2023-03-01T08:08:18;33.23;;;16.23;;
11572;SDS011;5842;52.426;4.886;2023-03-01T08:10:45;95.27;;;16.77;;
11572;SDS011;5842;52.426;4.886;2023-03-01T08:13:15;46.27;;;15.77;;
11572;SDS011;5842;52.426;4.886;2023-03-01T08:15:47;162.93;;;18.63;;
11572;SDS011;5842;52.426;4.886;2023-03-01T08:18:14;26.90;;;15.13;;
11572;SDS011;5842;52.426;4.886;2023-03-01T08:20:42;72.43;;;15.93;;
11572;SDS011;5842;52.426;4.886;2023-03-01T08:23:09;76.53;;;16.43;;
11572;SDS011;5842;52.426;4.886;2023-03-01T08:25:37;60.50;;;15.03;;
11572;SDS011;5842;52.426;4.886;2023-03-01T08:28:05;63.23;;;15.23;;
11572;SDS011;5842;52.426;4.886;2023-03-01T08:30:34;30.10;;;14.23;;
11572;SDS011;5842;52.426;4.886;2023-03-01T08:33:01;40.03;;;13.77;;
11572;SDS011;5842;52.426;4.886;2023-03-01T08:35:28;84.90;;;15.40;;
11572;SDS011;5842;52.426;4.886;2023-03-01T08:37:56;38.57;;;15.07;;
11572;SDS011;5842;52.426;4.886;2023-03-01T08:40:23;50.77;;;14.67;;
11572;SDS011;5842;52.426;4.886;2023-03-01T08:42:51;53.43;;;15.20;;
11572;SDS011;5842;52.426;4.886;2023-03-01T08:45:18;24.47;;;14.10;;
11572;SDS011;5842;52.426;4.886;2023-03-01T08:47:47;44.97;;;15.87;;
11572;SDS011;5842;52.426;4.886;2023-03-01T08:50:14;32.30;;;15.10;;
11572;SDS011;5842;52.426;4.886;2023-03-01T08:52:42;72.77;;;18.93;;
11572;SDS011;5842;52.426;4.886;2023-03-01T08:55:11;61.50;;;17.93;;
11572;SDS011;5842;52.426;4.886;2023-03-01T08:57:41;104.60;;;20.27;;
11572;SDS011;5842;52.426;4.886;2023-03-01T09:00:09;64.27;;;19.13;;
11572;SDS011;5842;52.426;4.886;2023-03-01T09:02:39;115.43;;;20.87;;
11572;SDS011;5842;52.426;4.886;2023-03-01T09:05:09;91.13;;;20.27;;
11572;SDS011;5842;52.426;4.886;2023-03-01T09:07:36;261.27;;;25.30;;
11572;SDS011;5842;52.426;4.886;2023-03-01T09:10:04;51.10;;;18.10;;
11572;SDS011;5842;52.426;4.886;2023-03-01T09:12:31;70.80;;;17.70;;
11572;SDS011;5842;52.426;4.886;2023-03-01T09:14:59;44.80;;;16.93;;
11572;SDS011;5842;52.426;4.886;2023-03-01T09:17:26;69.97;;;17.63;;
11572;SDS011;5842;52.426;4.886;2023-03-01T09:19:54;31.67;;;15.20;;
11572;SDS011;5842;52.426;4.886;2023-03-01T09:22:23;35.20;;;14.67;;
11572;SDS011;5842;52.426;4.886;2023-03-01T09:24:50;41.17;;;14.87;;
11572;SDS011;5842;52.426;4.886;2023-03-01T09:27:17;28.93;;;15.53;;
11572;SDS011;5842;52.426;4.886;2023-03-01T09:29:45;44.03;;;16.93;;
11572;SDS011;5842;52.426;4.886;2023-03-01T09:32:13;33.63;;;16.57;;
11572;SDS011;5842;52.426;4.886;2023-03-01T09:34:40;30.20;;;18.50;;
11572;SDS011;5842;52.426;4.886;2023-03-01T09:37:23;34.23;;;16.57;;
11572;SDS011;5842;52.426;4.886;2023-03-01T09:39:50;29.50;;;16.10;;
11572;SDS011;5842;52.426;4.886;2023-03-01T09:42:18;22.90;;;15.83;;
11572;SDS011;5842;52.426;4.886;2023-03-01T09:44:47;31.43;;;16.20;;
11572;SDS011;5842;52.426;4.886;2023-03-01T09:47:17;24.63;;;15.27;;
11572;SDS011;5842;52.426;4.886;2023-03-01T09:49:49;26.80;;;15.87;;
11572;SDS011;5842;52.426;4.886;2023-03-01T09:52:21;28.20;;;15.40;;
11572;SDS011;5842;52.426;4.886;2023-03-01T09:54:54;38.03;;;15.97;;
11572;SDS011;5842;52.426;4.886;2023-03-01T09:57:24;22.27;;;15.20;;
11572;SDS011;5842;52.426;4.886;2023-03-01T10:00:00;28.50;;;16.40;;
11572;SDS011;5842;52.426;4.886;2023-03-01T10:02:31;24.97;;;15.93;;
11572;SDS011;5842;52.426;4.886;2023-03-01T10:05:05;32.43;;;17.07;;
11572;SDS011;5842;52.426;4.886;2023-03-01T10:07:39;28.63;;;16.40;;
11572;SDS011;5842;52.426;4.886;2023-03-01T10:10:11;27.13;;;17.27;;
11572;SDS011;5842;52.426;4.886;2023-03-01T10:12:42;26.03;;;17.07;;
11572;SDS011;5842;52.426;4.886;2023-03-01T10:15:11;26.87;;;17.37;;
11572;SDS011;5842;52.426;4.886;2023-03-01T10:17:41;27.13;;;17.27;;
11572;SDS011;5842;52.426;4.886;2023-03-01T10:20:15;24.87;;;16.17;;
11572;SDS011;5842;52.426;4.886;2023-03-01T10:22:43;25.57;;;16.90;;
11572;SDS011;5842;52.426;4.886;2023-03-01T10:25:17;24.60;;;16.67;;
11572;SDS011;5842;52.426;4.886;2023-03-01T10:27:49;25.40;;;17.43;;
11572;SDS011;5842;52.426;4.886;2023-03-01T10:30:19;26.80;;;20.63;;
11572;SDS011;5842;52.426;4.886;2023-03-01T10:32:47;23.83;;;17.20;;
11572;SDS011;5842;52.426;4.886;2023-03-01T10:35:17;25.17;;;17.20;;
11572;SDS011;5842;52.426;4.886;2023-03-01T10:37:57;24.63;;;16.53;;
11572;SDS011;5842;52.426;4.886;2023-03-01T10:40:26;26.80;;;17.57;;
11572;SDS011;5842;52.426;4.886;2023-03-01T10:42:54;24.03;;;17.07;;
11572;SDS011;5842;52.426;4.886;2023-03-01T10:45:29;25.87;;;17.70;;
11572;SDS011;5842;52.426;4.886;2023-03-01T10:48:04;25.67;;;16.93;;
11572;SDS011;5842;52.426;4.886;2023-03-01T10:50:31;27.80;;;17.43;;
11572;SDS011;5842;52.426;4.886;2023-03-01T10:53:00;27.50;;;17.93;;
11572;SDS011;5842;52.426;4.886;2023-03-01T10:55:30;27.07;;;15.93;;
11572;SDS011;5842;52.426;4.886;2023-03-01T10:58:09;21.53;;;14.83;;
11572;SDS011;5842;52.426;4.886;2023-03-01T11:00:48;18.53;;;13.70;;
11572;SDS011;5842;52.426;4.886;2023-03-01T11:03:17;20.50;;;13.23;;
11572;SDS011;5842;52.426;4.886;2023-03-01T11:05:58;14.20;;;10.80;;
11572;SDS011;5842;52.426;4.886;2023-03-01T11:08:30;17.93;;;12.13;;
11572;SDS011;5842;52.426;4.886;2023-03-01T11:11:05;16.30;;;11.60;;
11572;SDS011;5842;52.426;4.886;2023-03-01T11:13:33;16.83;;;11.27;;
11572;SDS011;5842;52.426;4.886;2023-03-01T11:16:01;16.87;;;11.53;;
11572;SDS011;5842;52.426;4.886;2023-03-01T11:18:29;17.33;;;11.90;;
11572;SDS011;5842;52.426;4.886;2023-03-01T11:20:57;18.33;;;12.60;;
11572;SDS011;5842;52.426;4.886;2023-03-01T11:23:26;14.87;;;10.87;;
11572;SDS011;5842;52.426;4.886;2023-03-01T11:25:55;17.00;;;11.40;;
11572;SDS011;5842;52.426;4.886;2023-03-01T11:28:25;16.20;;;10.77;;
11572;SDS011;5842;52.426;4.886;2023-03-01T11:30:55;16.17;;;10.53;;
11572;SDS011;5842;52.426;4.886;2023-03-01T11:33:24;14.30;;;10.07;;
11572;SDS011;5842;52.426;4.886;2023-03-01T11:36:00;15.50;;;10.23;;
11572;SDS011;5842;52.426;4.886;2023-03-01T11:38:28;15.27;;;10.40;;
11572;SDS011;5842;52.426;4.886;2023-03-01T11:40:58;18.90;;;12.30;;
11572;SDS011;5842;52.426;4.886;2023-03-01T11:43:32;17.60;;;12.00;;
11572;SDS011;5842;52.426;4.886;2023-03-01T11:49:07;19.87;;;12.10;;
11572;SDS011;5842;52.426;4.886;2023-03-01T11:51:45;19.70;;;12.70;;
11572;SDS011;5842;52.426;4.886;2023-03-01T11:54:18;19.33;;;12.60;;
11572;SDS011;5842;52.426;4.886;2023-03-01T11:56:49;18.93;;;12.40;;
11572;SDS011;5842;52.426;4.886;2023-03-01T11:59:26;16.93;;;12.13;;
11572;SDS011;5842;52.426;4.886;2023-03-01T12:02:10;18.77;;;12.83;;
11572;SDS011;5842;52.426;4.886;2023-03-01T12:04:52;20.43;;;12.30;;
11572;SDS011;5842;52.426;4.886;2023-03-01T12:07:23;18.73;;;13.23;;
11572;SDS011;5842;52.426;4.886;2023-03-01T12:09:58;18.67;;;12.87;;
11572;SDS011;5842;52.426;4.886;2023-03-01T12:12:33;20.60;;;13.77;;
11572;SDS011;5842;52.426;4.886;2023-03-01T12:17:51;19.47;;;12.50;;
11572;SDS011;5842;52.426;4.886;2023-03-01T12:20:25;18.67;;;11.90;;
11572;SDS011;5842;52.426;4.886;2023-03-01T12:23:05;17.40;;;11.43;;
11572;SDS011;5842;52.426;4.886;2023-03-01T12:25:41;18.07;;;11.80;;
11572;SDS011;5842;52.426;4.886;2023-03-01T12:28:24;17.43;;;11.40;;
11572;SDS011;5842;52.426;4.886;2023-03-01T12:31:02;17.43;;;11.90;;
11572;SDS011;5842;52.426;4.886;2023-03-01T12:33:36;18.23;;;12.07;;
11572;SDS011;5842;52.426;4.886;2023-03-01T12:38:48;20.00;;;13.17;;
11572;SDS011;5842;52.426;4.886;2023-03-01T12:41:22;17.87;;;11.80;;
11572;SDS011;5842;52.426;4.886;2023-03-01T12:43:54;16.60;;;10.50;;
11572;SDS011;5842;52.426;4.886;2023-03-01T12:46:31;19.53;;;12.23;;
11572;SDS011;5842;52.426;4.886;2023-03-01T12:49:05;18.13;;;11.67;;
11572;SDS011;5842;52.426;4.886;2023-03-01T12:51:36;19.10;;;11.70;;
11572;SDS011;5842;52.426;4.886;2023-03-01T12:54:05;17.03;;;10.20;;
11572;SDS011;5842;52.426;4.886;2023-03-01T12:56:37;14.90;;;10.20;;
11572;SDS011;5842;52.426;4.886;2023-03-01T12:59:07;13.63;;;9.63;;
11572;SDS011;5842;52.426;4.886;2023-03-01T13:01:39;16.30;;;11.27;;
11572;SDS011;5842;52.426;4.886;2023-03-01T13:04:20;17.83;;;11.10;;
11572;SDS011;5842;52.426;4.886;2023-03-01T13:07:03;16.73;;;11.50;;
11572;SDS011;5842;52.426;4.886;2023-03-01T13:09:34;19.07;;;11.70;;
11572;SDS011;5842;52.426;4.886;2023-03-01T13:12:03;17.10;;;11.43;;
11572;SDS011;5842;52.426;4.886;2023-03-01T13:14:37;19.63;;;12.83;;
11572;SDS011;5842;52.426;4.886;2023-03-01T13:20:11;18.97;;;12.40;;
11572;SDS011;5842;52.426;4.886;2023-03-01T13:22:39;18.13;;;12.43;;
11572;SDS011;5842;52.426;4.886;2023-03-01T13:25:16;21.23;;;12.87;;
11572;SDS011;5842;52.426;4.886;2023-03-01T13:27:44;21.97;;;13.90;;
11572;SDS011;5842;52.426;4.886;2023-03-01T13:33:08;21.53;;;13.03;;
11572;SDS011;5842;52.426;4.886;2023-03-01T13:35:57;22.23;;;14.50;;
11572;SDS011;5842;52.426;4.886;2023-03-01T13:38:38;21.13;;;14.57;;
11572;SDS011;5842;52.426;4.886;2023-03-01T13:41:06;22.20;;;14.30;;
11572;SDS011;5842;52.426;4.886;2023-03-01T13:43:35;20.83;;;13.17;;
11572;SDS011;5842;52.426;4.886;2023-03-01T13:46:07;22.50;;;14.57;;
11572;SDS011;5842;52.426;4.886;2023-03-01T13:48:36;21.37;;;13.53;;
11572;SDS011;5842;52.426;4.886;2023-03-01T13:51:07;20.73;;;13.57;;
11572;SDS011;5842;52.426;4.886;2023-03-01T13:53:36;22.00;;;13.17;;
11572;SDS011;5842;52.426;4.886;2023-03-01T13:56:07;19.73;;;12.60;;
11572;SDS011;5842;52.426;4.886;2023-03-01T13:58:43;23.53;;;14.07;;
11572;SDS011;5842;52.426;4.886;2023-03-01T14:01:18;21.27;;;13.50;;
11572;SDS011;5842;52.426;4.886;2023-03-01T14:03:47;21.67;;;13.47;;
11572;SDS011;5842;52.426;4.886;2023-03-01T14:06:22;24.50;;;14.40;;
11572;SDS011;5842;52.426;4.886;2023-03-01T14:08:52;23.30;;;14.97;;
11572;SDS011;5842;52.426;4.886;2023-03-01T14:11:35;21.57;;;13.90;;
11572;SDS011;5842;52.426;4.886;2023-03-01T14:14:12;19.37;;;12.93;;
11572;SDS011;5842;52.426;4.886;2023-03-01T14:16:46;19.30;;;12.87;;
11572;SDS011;5842;52.426;4.886;2023-03-01T14:19:17;21.33;;;13.13;;
11572;SDS011;5842;52.426;4.886;2023-03-01T14:21:51;21.00;;;11.40;;
11572;SDS011;5842;52.426;4.886;2023-03-01T14:24:25;20.43;;;13.17;;
11572;SDS011;5842;52.426;4.886;2023-03-01T14:26:54;17.80;;;11.73;;
11572;SDS011;5842;52.426;4.886;2023-03-01T14:29:23;16.73;;;10.80;;
11572;SDS011;5842;52.426;4.886;2023-03-01T14:31:51;15.73;;;10.63;;
11572;SDS011;5842;52.426;4.886;2023-03-01T14:34:19;18.60;;;11.17;;
11572;SDS011;5842;52.426;4.886;2023-03-01T14:36:47;16.07;;;10.03;;
11572;SDS011;5842;52.426;4.886;2023-03-01T14:39:23;15.27;;;9.93;;
11572;SDS011;5842;52.426;4.886;2023-03-01T14:41:51;15.13;;;9.80;;
11572;SDS011;5842;52.426;4.886;2023-03-01T14:44:19;15.10;;;10.17;;
11572;SDS011;5842;52.426;4.886;2023-03-01T14:46:51;14.10;;;9.93;;
11572;SDS011;5842;52.426;4.886;2023-03-01T14:49:21;15.73;;;10.20;;
11572;SDS011;5842;52.426;4.886;2023-03-01T14:51:50;15.10;;;10.10;;
11572;SDS011;5842;52.426;4.886;2023-03-01T14:54:21;13.33;;;9.13;;
11572;SDS011;5842;52.426;4.886;2023-03-01T14:56:51;13.13;;;8.40;;
11572;SDS011;5842;52.426;4.886;2023-03-01T14:59:21;16.07;;;8.30;;
11572;SDS011;5842;52.426;4.886;2023-03-01T15:01:49;12.80;;;8.67;;
11572;SDS011;5842;52.426;4.886;2023-03-01T15:04:16;12.73;;;8.40;;
11572;SDS011;5842;52.426;4.886;2023-03-01T15:06:45;11.53;;;7.50;;
11572;SDS011;5842;52.426;4.886;2023-03-01T15:09:14;9.43;;;6.70;;
11572;SDS011;5842;52.426;4.886;2023-03-01T15:11:44;10.77;;;7.43;;
11572;SDS011;5842;52.426;4.886;2023-03-01T15:14:27;10.43;;;7.13;;
11572;SDS011;5842;52.426;4.886;2023-03-01T15:16:55;10.43;;;6.67;;
11572;SDS011;5842;52.426;4.886;2023-03-01T15:19:23;10.90;;;7.00;;
11572;SDS011;5842;52.426;4.886;2023-03-01T15:21:52;10.40;;;7.20;;
11572;SDS011;5842;52.426;4.886;2023-03-01T15:24:22;12.37;;;7.50;;
11572;SDS011;5842;52.426;4.886;2023-03-01T15:26:52;10.53;;;6.93;;